Aviation Digital Data Service (ADDS)

Output produced by METARs form (0320 UTC 27 January 2022)
found at http://aviationweather.gov/metar/data/
 
METAR text: K04V 270255Z AUTO 08003KT 10SM M08/M11 A3014 RMK AO2
Conditions at: K04V (SAGUACHE MUNI , CO, US) observed 0255 UTC 27 January 2022
Temperature: -8.0°C (18°F)
Dewpoint: -11.0°C (12°F) [RH = 79%]
Pressure (altimeter): 30.14 inches Hg (1020.7 mb)
Winds: from the E (80 degrees) at 3 MPH (3 knots; 1.5 m/s)
Visibility: 10 or more miles (16+ km)
Ceiling: unknown
Clouds: missing
Weather: automated observation with no human augmentation;
there may or may not be significant weather present at this time

METAR text: K04V 270235Z AUTO 00000KT 10SM M07/M11 A3013 RMK AO2
Conditions at: K04V (SAGUACHE MUNI , CO, US) observed 0235 UTC 27 January 2022
Temperature: -7.0°C (19°F)
Dewpoint: -11.0°C (12°F) [RH = 73%]
Pressure (altimeter): 30.13 inches Hg (1020.4 mb)
Winds: calm
Visibility: 10 or more miles (16+ km)
Ceiling: unknown
Clouds: missing
Weather: automated observation with no human augmentation;
there may or may not be significant weather present at this time